»·PEaware :: N758PH KBUR-KVCV

N758PH :: KBUR-KVCV

FLIGHT INFORMATION

Flight Status: Arrived
Operator: Privately registered:
United States
More flights under this callsign
Pilot: Matt F. (32895)
Aircraft: CESSNA 172 SKYHAWK
(C172)
More flights by this aircraft type
Origin: KBUR Bob Hope-Burbank
United States
Destination: KVCV Socal Logistics
United States
More flights between these airports :: More routes between these airports
Route:
File this flight plan on PilotEdge
Remarks:
Altitude:
(Current/Filed)
9,500ft
Speed:
(Current/Filed)
0kts
Departed: 09-Jan-21 07:58 PM
Arrived: 09-Jan-21 08:39 PM
Distance/Time
Traveled:
6789nm/0:40
Distance/Time
To Go:
Arrived

Flight Plot

Page will automatically refresh every two minutes.

Flight plan parsing failed; only flown route is shown


Map Options




Map Legend


Flown Route
Filed Route
Departure Airport
Arrival Airport
Navaid (VOR, NDB)
Fix

Horizontal Profiles

Position Reports

Time Latitude Longitude Heading Altitude Ground
Speed
09-Jan-21 19:42 34.199444 -118.359436 177 717ft 0kts
09-Jan-21 19:43 34.199444 -118.359436 177 717ft 0kts
09-Jan-21 19:44 34.199444 -118.359436 177 717ft 0kts
09-Jan-21 19:45 34.199444 -118.359436 177 717ft 0kts
09-Jan-21 19:46 34.199444 -118.359436 177 717ft 0kts
09-Jan-21 19:47 34.199444 -118.359436 177 717ft 0kts
09-Jan-21 19:48 34.198901 -118.360927 270 717ft 10kts
09-Jan-21 19:49 34.198925 -118.363413 269 717ft 3kts
09-Jan-21 19:50 34.199070 -118.365461 270 722ft 9kts
09-Jan-21 19:51 34.199107 -118.368541 265 729ft 4kts
09-Jan-21 19:52 34.198776 -118.368966 190 730ft 0kts
09-Jan-21 19:53 34.198776 -118.368966 190 730ft 0kts
09-Jan-21 19:54 34.198776 -118.368966 190 730ft 0kts
09-Jan-21 19:55 34.198776 -118.368966 190 730ft 0kts
09-Jan-21 19:56 34.198004 -118.368733 127 729ft 11kts
09-Jan-21 19:57 34.197140 -118.347264 91 1100ft 82kts
09-Jan-21 19:58 34.190235 -118.322392 109 1837ft 81kts
09-Jan-21 19:59 34.184138 -118.294233 106 2367ft 106kts
09-Jan-21 20:00 34.175342 -118.260542 100 3047ft 105kts
09-Jan-21 20:01 34.159230 -118.233393 132 3532ft 112kts
09-Jan-21 20:02 34.145646 -118.203235 111 3988ft 114kts
09-Jan-21 20:03 34.140548 -118.188467 114 4197ft 114kts
09-Jan-21 20:04 34.131062 -118.161985 113 4576ft 112kts
09-Jan-21 20:05 34.119601 -118.129606 113 5043ft 110kts
09-Jan-21 20:06 34.108207 -118.097408 113 5536ft 99kts
09-Jan-21 20:07 34.097755 -118.067940 113 6098ft 85kts
09-Jan-21 20:08 34.090125 -118.046420 114 6672ft 61kts
09-Jan-21 20:09 34.086020 -118.025092 85 7096ft 64kts
09-Jan-21 20:10 34.086905 -117.996205 89 7413ft 94kts
09-Jan-21 20:11 34.087807 -117.958739 88 7467ft 127kts
09-Jan-21 20:12 34.088798 -117.914761 88 7363ft 133kts
09-Jan-21 20:13 34.089710 -117.873735 88 7394ft 122kts
09-Jan-21 20:14 34.090511 -117.837323 88 7399ft 119kts
09-Jan-21 20:15 34.091380 -117.797539 88 7400ft 118kts
09-Jan-21 20:16 34.097807 -117.759162 69 7398ft 113kts
09-Jan-21 20:17 34.107302 -117.723466 71 7401ft 113kts
09-Jan-21 20:18 34.117923 -117.683914 71 7400ft 129kts
09-Jan-21 20:19 34.129102 -117.642150 71 7398ft 130kts
09-Jan-21 20:20 34.140255 -117.600405 71 7399ft 130kts
09-Jan-21 20:21 34.158442 -117.564315 34 7400ft 129kts
09-Jan-21 20:22 34.176171 -117.527625 72 7404ft 130kts
09-Jan-21 20:23 34.186748 -117.485685 72 7407ft 130kts
09-Jan-21 20:24 34.211104 -117.455814 24 7398ft 128kts
09-Jan-21 20:25 34.245959 -117.446474 3 7401ft 128kts
09-Jan-21 20:26 34.281806 -117.443512 2 7416ft 130kts
09-Jan-21 20:27 34.318087 -117.440738 2 7415ft 130kts
09-Jan-21 20:28 34.354187 -117.437965 2 7407ft 129kts
09-Jan-21 20:30 34.389995 -117.435207 2 7404ft 129kts
09-Jan-21 20:31 34.425811 -117.432179 6 7398ft 129kts
09-Jan-21 20:32 34.460710 -117.425041 8 7009ft 122kts
09-Jan-21 20:33 34.493620 -117.416840 10 6550ft 119kts
09-Jan-21 20:34 34.526403 -117.407388 18 5752ft 125kts
09-Jan-21 20:35 34.560450 -117.390933 20 4002ft 129kts
09-Jan-21 20:36 34.583246 -117.368147 51 3609ft 92kts
09-Jan-21 20:37 34.600805 -117.345500 34 3448ft 92kts
09-Jan-21 20:38 34.604175 -117.362271 227 3050ft 78kts
09-Jan-21 20:39 34.594141 -117.372729 186 2860ft 8kts
09-Jan-21 20:40 34.594067 -117.372733 180 2860ft 0kts
09-Jan-21 20:41 34.592727 -117.372950 222 2860ft 7kts
09-Jan-21 20:42 34.590520 -117.375612 226 2865ft 15kts
09-Jan-21 20:43 34.587815 -117.376822 228 2869ft 10kts
09-Jan-21 20:43 34.586520 -117.377236 90 2871ft 0kts
09-Jan-21 20:45 0.000408 0.013975 0 3ft 0kts
09-Jan-21 20:46 0.000408 0.013975 0 3ft 0kts
09-Jan-21 20:46 0.000408 0.013975 0 3ft 0kts
09-Jan-21 20:48 0.000408 0.013975 0 3ft 0kts
09-Jan-21 20:48 0.000408 0.013975 0 3ft 0kts
09-Jan-21 20:49 0.000408 0.013975 0 3ft 0kts
09-Jan-21 20:50 0.000408 0.013975 0 3ft 0kts
09-Jan-21 20:51 0.000408 0.013975 0 3ft 0kts
09-Jan-21 20:52 0.000408 0.013975 0 3ft 0kts

Navigation Log

Ident Type
Flight plan parsing failed, navigation log unavailable